EAG760 LGKR-LTBS
Flight info
| Callsign | EAG760 |
|---|---|
| Flight time | 1h 25m |
| Altitude | 35000 |
| Route | PARNA UL53 KOR UN604 ATV UL607 KEA UL995 RDS UN136 SOTIV |
| Aircraft | B738/M-SDE2E3FGHIRWXY/LB1 |
Departure
| Time | 2026-04-23 00:39 |
|---|---|
| Airport | Corfu Ioannis Kapodistrias International Airport (LGKR) |
Arrival
| Time | 2026-04-23 02:04 |
|---|---|
| Airport | Dalaman International Airport (LTBS) |
| Time | Latitude | Longitude | Altitude | Speed | Heading |
|---|---|---|---|---|---|
| 2026-04-23 00:30 | 39.60910 | 19.91210 | 14 ft | 0 kts | 77° |
| 2026-04-23 00:34 | 39.60886 | 19.91302 | 14 ft | 16 kts | 151° |
| 2026-04-23 00:34 | 39.60784 | 19.91262 | 14 ft | 16 kts | 204° |
| 2026-04-23 00:35 | 39.60665 | 19.91248 | 14 ft | 21 kts | 185° |
| 2026-04-23 00:35 | 39.60502 | 19.91157 | 13 ft | 28 kts | 194° |
| 2026-04-23 00:35 | 39.60315 | 19.91184 | 16 ft | 26 kts | 168° |
| 2026-04-23 00:35 | 39.60198 | 19.91214 | 16 ft | 25 kts | 168° |
| 2026-04-23 00:36 | 39.60030 | 19.91259 | 15 ft | 24 kts | 168° |
| 2026-04-23 00:36 | 39.59824 | 19.91314 | 15 ft | 22 kts | 168° |
| 2026-04-23 00:36 | 39.59668 | 19.91356 | 14 ft | 24 kts | 168° |
| 2026-04-23 00:36 | 39.59556 | 19.91385 | 12 ft | 25 kts | 169° |
| 2026-04-23 00:37 | 39.59376 | 19.91428 | 11 ft | 27 kts | 169° |
| 2026-04-23 00:37 | 39.59227 | 19.91455 | 11 ft | 19 kts | 189° |
| 2026-04-23 00:37 | 39.59164 | 19.91451 | 13 ft | 4 kts | 134° |
| 2026-04-23 00:37 | 39.59161 | 19.91456 | 12 ft | 0 kts | 128° |
| 2026-04-23 00:38 | 39.59160 | 19.91463 | 11 ft | 3 kts | 102° |
| 2026-04-23 00:38 | 39.59197 | 19.91533 | 12 ft | 9 kts | 25° |
| 2026-04-23 00:38 | 39.59250 | 19.91506 | 12 ft | 10 kts | 310° |
| 2026-04-23 00:38 | 39.59596 | 19.91361 | 12 ft | 99 kts | 349° |
| 2026-04-23 00:39 | 39.60541 | 19.91116 | 13 ft | 175 kts | 348° |
| 2026-04-23 00:39 | 39.61805 | 19.90800 | 842 ft | 184 kts | 352° |
| 2026-04-23 00:39 | 39.63062 | 19.90721 | 2048 ft | 183 kts | 352° |
| 2026-04-23 00:39 | 39.64282 | 19.90318 | 3190 ft | 181 kts | 332° |
| 2026-04-23 00:40 | 39.65196 | 19.89237 | 4228 ft | 180 kts | 302° |
| 2026-04-23 00:40 | 39.65618 | 19.87709 | 5195 ft | 183 kts | 272° |
| 2026-04-23 00:40 | 39.65438 | 19.86044 | 6017 ft | 198 kts | 256° |
| 2026-04-23 00:40 | 39.65066 | 19.84225 | 6446 ft | 216 kts | 255° |
| 2026-04-23 00:41 | 39.64661 | 19.82312 | 7077 ft | 221 kts | 255° |
| 2026-04-23 00:41 | 39.64257 | 19.80397 | 7882 ft | 218 kts | 258° |
| 2026-04-23 00:41 | 39.64352 | 19.78516 | 8720 ft | 209 kts | 291° |
| 2026-04-23 00:41 | 39.65140 | 19.76856 | 9073 ft | 228 kts | 309° |
| 2026-04-23 00:42 | 39.66202 | 19.75199 | 9300 ft | 253 kts | 309° |
| 2026-04-23 00:42 | 39.67376 | 19.73343 | 9552 ft | 277 kts | 309° |
| 2026-04-23 00:42 | 39.68615 | 19.71360 | 10122 ft | 287 kts | 309° |
| 2026-04-23 00:42 | 39.69881 | 19.69321 | 10854 ft | 292 kts | 308° |
| 2026-04-23 00:43 | 39.71198 | 19.67309 | 11649 ft | 293 kts | 316° |
| 2026-04-23 00:43 | 39.72884 | 19.65813 | 12380 ft | 297 kts | 338° |
| 2026-04-23 00:43 | 39.74914 | 19.65323 | 13075 ft | 301 kts | 4° |
| 2026-04-23 00:43 | 39.76928 | 19.66068 | 13764 ft | 305 kts | 30° |
| 2026-04-23 00:44 | 39.78493 | 19.67882 | 14439 ft | 309 kts | 55° |
| 2026-04-23 00:44 | 39.79361 | 19.70438 | 15108 ft | 312 kts | 79° |
| 2026-04-23 00:44 | 39.79343 | 19.73262 | 15757 ft | 316 kts | 104° |
| 2026-04-23 00:44 | 39.78403 | 19.75834 | 16383 ft | 319 kts | 130° |
| 2026-04-23 00:45 | 39.76725 | 19.77714 | 17031 ft | 320 kts | 148° |
| 2026-04-23 00:45 | 39.74797 | 19.79210 | 17643 ft | 324 kts | 151° |
| 2026-04-23 00:45 | 39.72809 | 19.80647 | 18222 ft | 329 kts | 151° |
| 2026-04-23 00:45 | 39.70828 | 19.82080 | 18829 ft | 332 kts | 151° |
| 2026-04-23 00:46 | 39.68817 | 19.83562 | 19475 ft | 333 kts | 150° |
| 2026-04-23 00:46 | 39.66797 | 19.85074 | 20074 ft | 336 kts | 150° |
| 2026-04-23 00:46 | 39.64767 | 19.86611 | 20629 ft | 339 kts | 150° |
| 2026-04-23 00:46 | 39.62714 | 19.88171 | 21182 ft | 343 kts | 150° |
| 2026-04-23 00:47 | 39.60650 | 19.89741 | 21732 ft | 345 kts | 150° |
| 2026-04-23 00:47 | 39.58581 | 19.91342 | 22260 ft | 348 kts | 146° |
| 2026-04-23 00:47 | 39.56651 | 19.93271 | 22771 ft | 351 kts | 139° |
| 2026-04-23 00:47 | 39.54818 | 19.95385 | 23278 ft | 354 kts | 138° |
| 2026-04-23 00:48 | 39.52987 | 19.97544 | 23768 ft | 357 kts | 138° |
| 2026-04-23 00:48 | 39.51132 | 19.99699 | 24245 ft | 360 kts | 139° |
| 2026-04-23 00:48 | 39.49243 | 20.01848 | 24713 ft | 363 kts | 139° |
| 2026-04-23 00:48 | 39.47330 | 20.03993 | 25170 ft | 365 kts | 139° |
| 2026-04-23 00:49 | 39.45424 | 20.06120 | 25610 ft | 368 kts | 139° |
| 2026-04-23 00:49 | 39.43641 | 20.08504 | 26009 ft | 371 kts | 125° |
| 2026-04-23 00:49 | 39.42208 | 20.11286 | 26467 ft | 372 kts | 123° |
| 2026-04-23 00:49 | 39.40822 | 20.14112 | 26962 ft | 372 kts | 122° |
| 2026-04-23 00:50 | 39.39441 | 20.16934 | 27488 ft | 370 kts | 122° |
| 2026-04-23 00:50 | 39.38052 | 20.19736 | 27992 ft | 369 kts | 123° |
| 2026-04-23 00:50 | 39.36653 | 20.22526 | 28455 ft | 369 kts | 123° |
| 2026-04-23 00:50 | 39.35247 | 20.25308 | 28906 ft | 369 kts | 123° |
| 2026-04-23 00:51 | 39.33846 | 20.28067 | 29361 ft | 367 kts | 123° |
| 2026-04-23 00:51 | 39.32439 | 20.30833 | 29780 ft | 367 kts | 123° |
| 2026-04-23 00:51 | 39.31035 | 20.33591 | 30125 ft | 369 kts | 123° |
| 2026-04-23 00:51 | 39.29622 | 20.36361 | 30507 ft | 369 kts | 123° |
| 2026-04-23 00:52 | 39.28209 | 20.39111 | 30985 ft | 365 kts | 124° |
| 2026-04-23 00:52 | 39.26802 | 20.41836 | 31428 ft | 363 kts | 124° |
| 2026-04-23 00:52 | 39.25419 | 20.44517 | 31731 ft | 364 kts | 123° |
| 2026-04-23 00:52 | 39.24022 | 20.47243 | 32035 ft | 364 kts | 123° |
| 2026-04-23 00:53 | 39.22627 | 20.49970 | 32386 ft | 363 kts | 123° |
| 2026-04-23 00:53 | 39.21238 | 20.52685 | 32712 ft | 362 kts | 123° |
| 2026-04-23 00:53 | 39.19848 | 20.55401 | 32985 ft | 363 kts | 123° |
| 2026-04-23 00:53 | 39.18455 | 20.58119 | 33217 ft | 365 kts | 123° |
| 2026-04-23 00:54 | 39.17053 | 20.60853 | 33516 ft | 364 kts | 123° |
| 2026-04-23 00:54 | 39.15661 | 20.63562 | 33835 ft | 363 kts | 123° |
| 2026-04-23 00:54 | 39.14269 | 20.66272 | 34142 ft | 361 kts | 123° |
| 2026-04-23 00:54 | 39.12877 | 20.68978 | 34335 ft | 363 kts | 123° |
| 2026-04-23 00:55 | 39.11481 | 20.71689 | 34590 ft | 362 kts | 123° |
| 2026-04-23 00:55 | 39.10090 | 20.74388 | 34875 ft | 360 kts | 123° |
| 2026-04-23 00:55 | 39.08709 | 20.77066 | 35116 ft | 360 kts | 123° |
| 2026-04-23 00:56 | 39.05875 | 20.82556 | 35030 ft | 375 kts | 124° |
| 2026-04-23 00:56 | 39.02950 | 20.88210 | 35026 ft | 389 kts | 124° |
| 2026-04-23 00:57 | 38.99893 | 20.94113 | 35029 ft | 403 kts | 124° |
| 2026-04-23 00:57 | 38.96736 | 21.00192 | 35029 ft | 416 kts | 124° |
| 2026-04-23 00:58 | 38.93469 | 21.06471 | 35025 ft | 429 kts | 124° |
| 2026-04-23 00:58 | 38.90104 | 21.12929 | 35023 ft | 441 kts | 124° |
| 2026-04-23 00:59 | 38.86649 | 21.19548 | 35020 ft | 452 kts | 124° |
| 2026-04-23 00:59 | 38.83104 | 21.26325 | 35020 ft | 462 kts | 124° |
| 2026-04-23 01:00 | 38.79503 | 21.33196 | 35025 ft | 470 kts | 124° |
| 2026-04-23 01:00 | 38.75841 | 21.40169 | 35007 ft | 472 kts | 124° |
| 2026-04-23 01:01 | 38.72191 | 21.47107 | 35002 ft | 466 kts | 124° |
| 2026-04-23 01:01 | 38.68569 | 21.53965 | 35011 ft | 464 kts | 124° |
| 2026-04-23 01:02 | 38.64926 | 21.60837 | 35014 ft | 470 kts | 124° |
| 2026-04-23 01:02 | 38.61250 | 21.67762 | 35018 ft | 471 kts | 124° |
| 2026-04-23 01:03 | 38.57564 | 21.74696 | 35014 ft | 470 kts | 124° |
| 2026-04-23 01:03 | 38.53909 | 21.81557 | 34994 ft | 470 kts | 124° |
| 2026-04-23 01:04 | 38.50214 | 21.88468 | 35014 ft | 470 kts | 124° |
| 2026-04-23 01:04 | 38.44677 | 21.98773 | 35006 ft | 468 kts | 124° |
| 2026-04-23 01:05 | 38.41018 | 22.05572 | 35003 ft | 468 kts | 124° |
| 2026-04-23 01:05 | 38.37329 | 22.12414 | 35015 ft | 466 kts | 124° |
| 2026-04-23 01:06 | 38.33655 | 22.19216 | 35007 ft | 465 kts | 124° |
| 2026-04-23 01:06 | 38.29995 | 22.25974 | 35010 ft | 463 kts | 124° |
| 2026-04-23 01:07 | 38.26331 | 22.32726 | 35013 ft | 462 kts | 124° |
| 2026-04-23 01:07 | 38.22700 | 22.39408 | 35016 ft | 461 kts | 124° |
| 2026-04-23 01:08 | 38.19045 | 22.46123 | 35015 ft | 461 kts | 125° |
| 2026-04-23 01:08 | 38.15396 | 22.52812 | 35008 ft | 460 kts | 125° |
| 2026-04-23 01:09 | 38.11737 | 22.59509 | 35010 ft | 460 kts | 125° |
| 2026-04-23 01:09 | 38.08078 | 22.66192 | 35010 ft | 461 kts | 125° |
| 2026-04-23 01:10 | 38.04411 | 22.72874 | 35008 ft | 461 kts | 125° |
| 2026-04-23 01:10 | 38.00735 | 22.79560 | 35012 ft | 462 kts | 125° |
| 2026-04-23 01:11 | 37.97081 | 22.86201 | 35008 ft | 462 kts | 125° |
| 2026-04-23 01:11 | 37.93583 | 22.93039 | 34995 ft | 463 kts | 112° |
| 2026-04-23 01:12 | 37.92729 | 22.96959 | 35010 ft | 462 kts | 96° |
| 2026-04-23 01:12 | 37.92499 | 23.01014 | 35026 ft | 462 kts | 93° |
| 2026-04-23 01:12 | 37.92225 | 23.09164 | 35008 ft | 463 kts | 92° |
| 2026-04-23 01:13 | 37.91929 | 23.17295 | 35006 ft | 464 kts | 93° |
| 2026-04-23 01:13 | 37.91573 | 23.25453 | 35008 ft | 464 kts | 93° |
| 2026-04-23 01:14 | 37.91191 | 23.33610 | 35012 ft | 464 kts | 93° |
| 2026-04-23 01:14 | 37.90802 | 23.41770 | 35009 ft | 464 kts | 93° |
| 2026-04-23 01:15 | 37.90410 | 23.49936 | 35013 ft | 464 kts | 93° |
| 2026-04-23 01:15 | 37.90013 | 23.58101 | 35011 ft | 464 kts | 94° |
| 2026-04-23 01:16 | 37.89611 | 23.66258 | 35013 ft | 464 kts | 94° |
| 2026-04-23 01:16 | 37.89206 | 23.74368 | 35012 ft | 464 kts | 94° |
| 2026-04-23 01:17 | 37.88834 | 23.78417 | 34986 ft | 464 kts | 105° |
| 2026-04-23 01:17 | 37.87656 | 23.82192 | 35015 ft | 463 kts | 121° |
| 2026-04-23 01:17 | 37.83656 | 23.88542 | 35014 ft | 462 kts | 131° |
| 2026-04-23 01:18 | 37.79418 | 23.94686 | 35001 ft | 464 kts | 131° |
| 2026-04-23 01:18 | 37.75212 | 24.00881 | 35015 ft | 464 kts | 130° |
| 2026-04-23 01:19 | 37.71037 | 24.07103 | 35015 ft | 464 kts | 130° |
| 2026-04-23 01:19 | 37.66865 | 24.13325 | 35010 ft | 464 kts | 130° |
| 2026-04-23 01:20 | 37.62686 | 24.19539 | 35006 ft | 464 kts | 130° |
| 2026-04-23 01:20 | 37.58530 | 24.25707 | 35008 ft | 463 kts | 130° |
| 2026-04-23 01:21 | 37.54904 | 24.32379 | 35008 ft | 463 kts | 109° |
| 2026-04-23 01:21 | 37.52931 | 24.40096 | 35018 ft | 463 kts | 107° |
| 2026-04-23 01:22 | 37.51008 | 24.47836 | 35014 ft | 463 kts | 108° |
| 2026-04-23 01:22 | 37.49034 | 24.55521 | 35011 ft | 463 kts | 108° |
| 2026-04-23 01:23 | 37.47359 | 24.61930 | 35007 ft | 463 kts | 108° |
| 2026-04-23 01:23 | 37.45333 | 24.69635 | 35009 ft | 463 kts | 108° |
| 2026-04-23 01:24 | 37.43305 | 24.77329 | 35011 ft | 463 kts | 108° |
| 2026-04-23 01:24 | 37.41273 | 24.85026 | 35011 ft | 463 kts | 108° |
| 2026-04-23 01:25 | 37.39236 | 24.92720 | 35006 ft | 464 kts | 108° |
| 2026-04-23 01:25 | 37.37192 | 25.00422 | 35014 ft | 464 kts | 108° |
| 2026-04-23 01:26 | 37.35158 | 25.08059 | 35012 ft | 463 kts | 108° |
| 2026-04-23 01:26 | 37.33109 | 25.15740 | 35009 ft | 463 kts | 108° |
| 2026-04-23 01:27 | 37.31057 | 25.23417 | 35015 ft | 463 kts | 109° |
| 2026-04-23 01:27 | 37.29000 | 25.31092 | 35008 ft | 463 kts | 109° |
| 2026-04-23 01:28 | 37.26902 | 25.38693 | 35010 ft | 463 kts | 111° |
| 2026-04-23 01:28 | 37.24428 | 25.46160 | 35012 ft | 463 kts | 113° |
| 2026-04-23 01:29 | 37.21961 | 25.53632 | 35011 ft | 463 kts | 112° |
| 2026-04-23 01:29 | 37.19485 | 25.61083 | 35010 ft | 463 kts | 112° |
| 2026-04-23 01:30 | 37.16995 | 25.68533 | 35008 ft | 463 kts | 112° |
| 2026-04-23 01:30 | 37.14504 | 25.75979 | 35013 ft | 463 kts | 112° |
| 2026-04-23 01:31 | 37.12025 | 25.83376 | 35008 ft | 463 kts | 113° |
| 2026-04-23 01:31 | 37.09525 | 25.90819 | 35010 ft | 463 kts | 113° |
| 2026-04-23 01:32 | 37.07021 | 25.98255 | 35013 ft | 463 kts | 113° |
| 2026-04-23 01:32 | 37.04509 | 26.05698 | 35013 ft | 463 kts | 113° |
| 2026-04-23 01:33 | 37.02009 | 26.13084 | 35012 ft | 463 kts | 113° |
| 2026-04-23 01:33 | 36.99490 | 26.20515 | 35015 ft | 463 kts | 113° |
| 2026-04-23 01:34 | 36.96972 | 26.27925 | 35019 ft | 463 kts | 113° |
| 2026-04-23 01:34 | 36.94474 | 26.35298 | 35011 ft | 463 kts | 113° |
| 2026-04-23 01:35 | 36.91957 | 26.42715 | 35010 ft | 463 kts | 113° |
| 2026-04-23 01:35 | 36.89438 | 26.50121 | 35010 ft | 463 kts | 113° |
| 2026-04-23 01:36 | 36.86907 | 26.57519 | 35009 ft | 463 kts | 113° |
| 2026-04-23 01:36 | 36.84366 | 26.64924 | 35011 ft | 463 kts | 113° |
| 2026-04-23 01:37 | 36.81823 | 26.72319 | 35015 ft | 463 kts | 113° |
| 2026-04-23 01:37 | 36.79302 | 26.79651 | 35009 ft | 463 kts | 113° |
| 2026-04-23 01:38 | 36.76751 | 26.87059 | 35007 ft | 463 kts | 113° |
| 2026-04-23 01:38 | 36.74202 | 26.94444 | 35010 ft | 463 kts | 113° |
| 2026-04-23 01:39 | 36.71645 | 27.01831 | 35011 ft | 463 kts | 113° |
| 2026-04-23 01:39 | 36.69107 | 27.09151 | 35009 ft | 463 kts | 113° |
| 2026-04-23 01:40 | 36.66544 | 27.16512 | 35010 ft | 463 kts | 114° |
| 2026-04-23 01:40 | 36.63971 | 27.23866 | 35011 ft | 463 kts | 114° |
| 2026-04-23 01:41 | 36.61390 | 27.31223 | 35009 ft | 463 kts | 114° |
| 2026-04-23 01:41 | 36.58809 | 27.38570 | 35015 ft | 463 kts | 114° |
| 2026-04-23 01:42 | 36.56226 | 27.45906 | 35015 ft | 463 kts | 114° |
| 2026-04-23 01:42 | 36.53649 | 27.53210 | 35010 ft | 463 kts | 114° |
| 2026-04-23 01:43 | 36.51055 | 27.60542 | 35010 ft | 463 kts | 114° |
| 2026-04-23 01:43 | 36.48455 | 27.67878 | 35013 ft | 463 kts | 114° |
| 2026-04-23 01:44 | 36.45850 | 27.75202 | 35012 ft | 463 kts | 114° |
| 2026-04-23 01:44 | 36.43233 | 27.82514 | 35008 ft | 463 kts | 114° |
| 2026-04-23 01:45 | 36.40630 | 27.89773 | 35009 ft | 463 kts | 114° |
| 2026-04-23 01:45 | 36.38007 | 27.97078 | 35009 ft | 463 kts | 114° |
| 2026-04-23 01:46 | 36.35654 | 28.04510 | 34985 ft | 463 kts | 99° |
| 2026-04-23 01:46 | 36.35561 | 28.08478 | 35024 ft | 462 kts | 83° |
| 2026-04-23 01:46 | 36.36296 | 28.12341 | 35011 ft | 462 kts | 68° |
| 2026-04-23 01:47 | 36.37807 | 28.15840 | 34985 ft | 458 kts | 57° |
| 2026-04-23 01:47 | 36.39541 | 28.19115 | 34598 ft | 451 kts | 56° |
| 2026-04-23 01:47 | 36.41305 | 28.22341 | 33882 ft | 453 kts | 56° |
| 2026-04-23 01:47 | 36.43084 | 28.25600 | 33018 ft | 458 kts | 56° |
| 2026-04-23 01:48 | 36.44863 | 28.28910 | 32112 ft | 464 kts | 56° |
| 2026-04-23 01:48 | 36.46625 | 28.32241 | 31225 ft | 468 kts | 57° |
| 2026-04-23 01:48 | 36.48403 | 28.35638 | 30343 ft | 471 kts | 57° |
| 2026-04-23 01:48 | 36.50189 | 28.39064 | 29459 ft | 472 kts | 57° |
| 2026-04-23 01:49 | 36.51977 | 28.42494 | 28567 ft | 474 kts | 57° |
| 2026-04-23 01:49 | 36.53952 | 28.45776 | 27575 ft | 475 kts | 44° |
| 2026-04-23 01:49 | 36.56577 | 28.48271 | 26544 ft | 477 kts | 29° |
| 2026-04-23 01:49 | 36.59652 | 28.49798 | 25521 ft | 478 kts | 13° |
| 2026-04-23 01:50 | 36.62890 | 28.50645 | 24771 ft | 473 kts | 11° |
| 2026-04-23 01:50 | 36.66099 | 28.51432 | 24099 ft | 466 kts | 11° |
| 2026-04-23 01:50 | 36.69249 | 28.52255 | 23403 ft | 460 kts | 12° |
| 2026-04-23 01:50 | 36.72357 | 28.53112 | 22668 ft | 455 kts | 12° |
| 2026-04-23 01:51 | 36.75390 | 28.53964 | 21941 ft | 451 kts | 12° |
| 2026-04-23 01:51 | 36.78436 | 28.54815 | 21221 ft | 446 kts | 12° |
| 2026-04-23 01:51 | 36.81445 | 28.55652 | 20517 ft | 441 kts | 12° |
| 2026-04-23 01:51 | 36.84425 | 28.56481 | 19814 ft | 437 kts | 12° |
| 2026-04-23 01:52 | 36.87388 | 28.57305 | 19047 ft | 434 kts | 12° |
| 2026-04-23 01:52 | 36.90318 | 28.58120 | 18394 ft | 429 kts | 12° |
| 2026-04-23 01:52 | 36.93215 | 28.58927 | 17725 ft | 424 kts | 12° |
| 2026-04-23 01:52 | 36.96091 | 28.59729 | 17011 ft | 421 kts | 12° |
| 2026-04-23 01:53 | 36.98931 | 28.60522 | 16393 ft | 415 kts | 12° |
| 2026-04-23 01:53 | 37.01740 | 28.61306 | 15719 ft | 411 kts | 12° |
| 2026-04-23 01:53 | 37.04522 | 28.62111 | 14946 ft | 410 kts | 16° |
| 2026-04-23 01:53 | 37.07071 | 28.63665 | 14234 ft | 408 kts | 37° |
| 2026-04-23 01:54 | 37.09080 | 28.66121 | 13625 ft | 403 kts | 53° |
| 2026-04-23 01:54 | 37.10450 | 28.69157 | 13002 ft | 399 kts | 65° |
| 2026-04-23 01:54 | 37.11574 | 28.72268 | 12291 ft | 397 kts | 65° |
| 2026-04-23 01:54 | 37.12730 | 28.75419 | 11574 ft | 396 kts | 65° |
| 2026-04-23 01:55 | 37.13837 | 28.78564 | 10955 ft | 392 kts | 71° |
| 2026-04-23 01:55 | 37.14393 | 28.81890 | 10292 ft | 389 kts | 82° |
| 2026-04-23 01:55 | 37.14770 | 28.85235 | 9721 ft | 385 kts | 81° |
| 2026-04-23 01:55 | 37.15192 | 28.88528 | 9096 ft | 381 kts | 80° |
| 2026-04-23 01:56 | 37.15553 | 28.91806 | 8462 ft | 379 kts | 89° |
| 2026-04-23 01:56 | 37.15118 | 28.95032 | 7850 ft | 376 kts | 110° |
| 2026-04-23 01:56 | 37.13870 | 28.97871 | 7289 ft | 371 kts | 129° |
| 2026-04-23 01:56 | 37.12067 | 29.00129 | 6588 ft | 361 kts | 139° |
| 2026-04-23 01:57 | 37.10154 | 29.02137 | 5647 ft | 357 kts | 147° |
| 2026-04-23 01:57 | 37.07913 | 29.03260 | 4958 ft | 346 kts | 172° |
| 2026-04-23 01:57 | 37.05580 | 29.03262 | 5005 ft | 321 kts | 190° |
| 2026-04-23 01:57 | 37.03519 | 29.02528 | 5024 ft | 308 kts | 204° |
| 2026-04-23 01:58 | 37.01661 | 29.01122 | 5159 ft | 321 kts | 219° |
| 2026-04-23 01:58 | 36.99949 | 28.99202 | 5326 ft | 340 kts | 224° |
| 2026-04-23 01:58 | 36.98228 | 28.97091 | 5731 ft | 347 kts | 225° |
| 2026-04-23 01:58 | 36.96511 | 28.94964 | 5853 ft | 344 kts | 224° |
| 2026-04-23 01:59 | 36.94845 | 28.92936 | 5718 ft | 326 kts | 224° |
| 2026-04-23 01:59 | 36.93314 | 28.91037 | 5908 ft | 287 kts | 226° |
| 2026-04-23 01:59 | 36.92025 | 28.89401 | 5882 ft | 247 kts | 226° |
| 2026-04-23 01:59 | 36.90885 | 28.87950 | 5687 ft | 221 kts | 226° |
| 2026-04-23 02:00 | 36.89830 | 28.86615 | 5166 ft | 214 kts | 226° |
| 2026-04-23 02:00 | 36.88680 | 28.85440 | 4559 ft | 215 kts | 206° |
| 2026-04-23 02:00 | 36.87302 | 28.84768 | 3999 ft | 212 kts | 199° |
| 2026-04-23 02:00 | 36.85896 | 28.84230 | 3393 ft | 212 kts | 196° |
| 2026-04-23 02:01 | 36.84483 | 28.83736 | 2831 ft | 209 kts | 196° |
| 2026-04-23 02:01 | 36.83084 | 28.83259 | 2351 ft | 204 kts | 195° |
| 2026-04-23 02:01 | 36.81783 | 28.82816 | 2161 ft | 186 kts | 196° |
| 2026-04-23 02:01 | 36.80562 | 28.82402 | 1732 ft | 184 kts | 196° |
| 2026-04-23 02:02 | 36.79332 | 28.81982 | 1291 ft | 183 kts | 196° |
| 2026-04-23 02:02 | 36.78107 | 28.81563 | 853 ft | 182 kts | 196° |
| 2026-04-23 02:02 | 36.76884 | 28.81146 | 551 ft | 182 kts | 195° |
| 2026-04-23 02:02 | 36.75656 | 28.80727 | 545 ft | 183 kts | 195° |
| 2026-04-23 02:03 | 36.74458 | 28.80319 | 547 ft | 170 kts | 196° |
| 2026-04-23 02:03 | 36.73364 | 28.79946 | 481 ft | 156 kts | 196° |
| 2026-04-23 02:03 | 36.72337 | 28.79608 | 374 ft | 139 kts | 195° |
| 2026-04-23 02:03 | 36.71394 | 28.79285 | 124 ft | 138 kts | 195° |
| 2026-04-23 02:04 | 36.70515 | 28.78980 | 22 ft | 101 kts | 195° |
| 2026-04-23 02:04 | 36.70186 | 28.78871 | 19 ft | 35 kts | 194° |
| 2026-04-23 02:04 | 36.70034 | 28.78730 | 18 ft | 28 kts | 284° |
| 2026-04-23 02:04 | 36.70232 | 28.78663 | 20 ft | 43 kts | 21° |
| 2026-04-23 02:05 | 36.70599 | 28.78779 | 21 ft | 64 kts | 15° |
| 2026-04-23 02:05 | 36.71052 | 28.78934 | 22 ft | 66 kts | 15° |
| 2026-04-23 02:05 | 36.71319 | 28.79000 | 23 ft | 22 kts | 326° |
| 2026-04-23 02:05 | 36.71454 | 28.78936 | 23 ft | 21 kts | 0° |
| 2026-04-23 02:06 | 36.71565 | 28.78908 | 24 ft | 15 kts | 348° |
| 2026-04-23 02:06 | 36.71611 | 28.78831 | 26 ft | 7 kts | 285° |
| 2026-04-23 02:06 | 36.71612 | 28.78824 | 25 ft | 0 kts | 285° |